CMA CGM Tage — 9HA3777 — position and weather

sailwx.info

Track history (hours):
 
Tides and Currents Weather Stations Pressure Air Temp Water Temp Dewpoint Dewpoint Depression Visibility Wind Speed Wind Dir Waves Ship Positions

CMA CGM Tage

Last reported at 2018-Jan-12 14:54 UTC. Time now 2018-Jan-24 11:26 UTC.
Position N 01°15' E 103°47'.
Warning: this ship's position is 11 days out of date.

Length 300 m; draft 13.2 m.

Type: Ship (hazmat cat A). MMSI: 229988000.

Date/timePositionNaut miles runAvg speedWind from/ knotsBaromVisibWave heightAir tempDewpointWater temp
2018-Jan-12 14:54N 01°15' E 103°47'0 0.0
2018-Jan-12 14:30N 01°15' E 103°47'0 0.0
2018-Jan-12 13:57N 01°15' E 103°47'0 0.0
2018-Jan-12 13:30N 01°15' E 103°47'0 0.0
2018-Jan-12 12:57N 01°15' E 103°47'0 0.0
2018-Jan-12 12:30N 01°15' E 103°47'0 0.0
2018-Jan-12 11:57N 01°15' E 103°47'0 0.0
2018-Jan-12 11:27N 01°15' E 103°47'0 0.0
2018-Jan-12 10:57N 01°15' E 103°47'0 0.0
2018-Jan-12 10:30N 01°15' E 103°47'0 0.0
2018-Jan-12 09:51N 01°15' E 103°47'0 0.0
2018-Jan-12 09:30N 01°15' E 103°47'0 0.0
2018-Jan-12 08:57N 01°15' E 103°47'0 0.0
2018-Jan-12 08:27N 01°15' E 103°47'0 0.0
2018-Jan-12 07:58N 01°15' E 103°47'0 0.0
2018-Jan-12 07:21N 01°15' E 103°47'0 0.0
2018-Jan-12 06:56N 01°15' E 103°47'0 0.0
2018-Jan-12 06:29N 01°15' E 103°47'0 0.0
2018-Jan-12 05:53N 01°15' E 103°47'0 0.0
2018-Jan-12 05:29N 01°15' E 103°47'0 0.0
2018-Jan-12 04:56N 01°15' E 103°47'0 0.0
2018-Jan-12 04:29N 01°15' E 103°47'0 0.0
2018-Jan-12 03:56N 01°15' E 103°47'0 0.0
2018-Jan-12 03:26N 01°15' E 103°47'0 0.0
2018-Jan-12 02:50N 01°15' E 103°47'0 0.0
2018-Jan-12 02:29N 01°15' E 103°47'0 0.0
2018-Jan-12 01:59N 01°15' E 103°47'0 0.0
2018-Jan-12 01:29N 01°15' E 103°47'0 0.0
2018-Jan-12 00:59N 01°15' E 103°47'0 0.0
2018-Jan-12 00:29N 01°15' E 103°47'0 0.0
2018-Jan-11 23:53N 01°15' E 103°47'0 0.0
2018-Jan-11 23:23N 01°15' E 103°47'0 0.0
2018-Jan-11 22:50N 01°15' E 103°47'0 0.0
2018-Jan-11 22:29N 01°15' E 103°47'0 0.0
2018-Jan-11 21:59N 01°15' E 103°47'0 0.0
2018-Jan-11 21:23N 01°15' E 103°47'0 0.0
2018-Jan-11 20:59N 01°15' E 103°47'0 0.0
2018-Jan-11 20:29N 01°15' E 103°47'0 0.1
2018-Jan-11 20:00N 01°15' E 103°47'0 0.8
2018-Jan-11 19:30N 01°15' E 103°47'0 0.3
2018-Jan-11 19:00N 01°15' E 103°47'1 2.4
2018-Jan-11 18:30N 01°15' E 103°46'3 6.0
2018-Jan-11 18:00N 01°14' E 103°43'4 8.3
2018-Jan-11 17:30N 01°12' E 103°39'4 7.1
2018-Jan-11 17:00N 01°12' E 103°36'510.7
2018-Jan-11 16:30N 01°10' E 103°31'1 1.2
2018-Jan-11 15:59N 01°10' E 103°31'1 2.0
2018-Jan-11 15:30N 01°09' E 103°31'0 0.4
2018-Jan-11 14:59N 01°09' E 103°31'1 1.1
2018-Jan-11 14:30N 01°10' E 103°31'1 1.0
2018-Jan-11 13:58N 01°10' E 103°31'4 8.5
2018-Jan-11 13:28N 01°11' E 103°27'5 9.8
2018-Jan-11 12:59N 01°13' E 103°23'4 9.0
2018-Jan-11 12:30N 01°16' E 103°20'  
Track history (hours):
 
Tides and Currents Weather Stations Pressure Air Temp Water Temp Dewpoint Dewpoint Depression Visibility Wind Speed Wind Dir Waves Ship Positions

CMA CGM Tage

Last reported at 2018-Jan-12 14:54 UTC. Time now 2018-Jan-24 11:26 UTC.
Position N 01°15' E 103°47'.
Warning: this ship's position is 11 days out of date.

Length 300 m; draft 13.2 m.

Type: Ship (hazmat cat A). MMSI: 229988000.

Date/timePositionNaut miles runAvg speedWind from/ knotsBaromVisibWave heightAir tempDewpointWater temp
2018-Jan-12 14:54N 01°15' E 103°47'0 0.0
2018-Jan-12 14:30N 01°15' E 103°47'0 0.0
2018-Jan-12 13:57N 01°15' E 103°47'0 0.0
2018-Jan-12 13:30N 01°15' E 103°47'0 0.0
2018-Jan-12 12:57N 01°15' E 103°47'0 0.0
2018-Jan-12 12:30N 01°15' E 103°47'0 0.0
2018-Jan-12 11:57N 01°15' E 103°47'0 0.0
2018-Jan-12 11:27N 01°15' E 103°47'0 0.0
2018-Jan-12 10:57N 01°15' E 103°47'0 0.0
2018-Jan-12 10:30N 01°15' E 103°47'0 0.0
2018-Jan-12 09:51N 01°15' E 103°47'0 0.0
2018-Jan-12 09:30N 01°15' E 103°47'0 0.0
2018-Jan-12 08:57N 01°15' E 103°47'0 0.0
2018-Jan-12 08:27N 01°15' E 103°47'0 0.0
2018-Jan-12 07:58N 01°15' E 103°47'0 0.0
2018-Jan-12 07:21N 01°15' E 103°47'0 0.0
2018-Jan-12 06:56N 01°15' E 103°47'0 0.0
2018-Jan-12 06:29N 01°15' E 103°47'0 0.0
2018-Jan-12 05:53N 01°15' E 103°47'0 0.0
2018-Jan-12 05:29N 01°15' E 103°47'0 0.0
2018-Jan-12 04:56N 01°15' E 103°47'0 0.0
2018-Jan-12 04:29N 01°15' E 103°47'0 0.0
2018-Jan-12 03:56N 01°15' E 103°47'0 0.0
2018-Jan-12 03:26N 01°15' E 103°47'0 0.0
2018-Jan-12 02:50N 01°15' E 103°47'0 0.0
2018-Jan-12 02:29N 01°15' E 103°47'0 0.0
2018-Jan-12 01:59N 01°15' E 103°47'0 0.0
2018-Jan-12 01:29N 01°15' E 103°47'0 0.0
2018-Jan-12 00:59N 01°15' E 103°47'0 0.0
2018-Jan-12 00:29N 01°15' E 103°47'0 0.0
2018-Jan-11 23:53N 01°15' E 103°47'0 0.0
2018-Jan-11 23:23N 01°15' E 103°47'0 0.0
2018-Jan-11 22:50N 01°15' E 103°47'0 0.0
2018-Jan-11 22:29N 01°15' E 103°47'0 0.0
2018-Jan-11 21:59N 01°15' E 103°47'0 0.0
2018-Jan-11 21:23N 01°15' E 103°47'0 0.0
2018-Jan-11 20:59N 01°15' E 103°47'0 0.0
2018-Jan-11 20:29N 01°15' E 103°47'0 0.1
2018-Jan-11 20:00N 01°15' E 103°47'0 0.8
2018-Jan-11 19:30N 01°15' E 103°47'0 0.3
2018-Jan-11 19:00N 01°15' E 103°47'1 2.4
2018-Jan-11 18:30N 01°15' E 103°46'3 6.0
2018-Jan-11 18:00N 01°14' E 103°43'4 8.3
2018-Jan-11 17:30N 01°12' E 103°39'4 7.1
2018-Jan-11 17:00N 01°12' E 103°36'510.7
2018-Jan-11 16:30N 01°10' E 103°31'1 1.2
2018-Jan-11 15:59N 01°10' E 103°31'1 2.0
2018-Jan-11 15:30N 01°09' E 103°31'0 0.4
2018-Jan-11 14:59N 01°09' E 103°31'1 1.1
2018-Jan-11 14:30N 01°10' E 103°31'1 1.0
2018-Jan-11 13:58N 01°10' E 103°31'4 8.5
2018-Jan-11 13:28N 01°11' E 103°27'5 9.8
2018-Jan-11 12:59N 01°13' E 103°23'4 9.0
2018-Jan-11 12:30N 01°16' E 103°20'  

Dump ship's entire track history